KOLS/OLS METAR and TAF weather

Enter ICAO airport designator
Station Type Date Time Source
KOLS METAR 2019/10/15 03:54 UTC NOAA

KOLS 150354Z AUTO 08007KT 10SM CLR 17/06 A3004 RMK AO2 SLP121 T01670056


Station Type Date Time Source
KOLS Decoded METAR 2019/10/15 03:54 UTC NOAA

NOGALES INTERNATIONAL AIRPORT , AZ, United States (KOLS) 31-25N 110-51W 1184M
Oct 14, 2019 - 11:54 PM EDT / 2019.10.15 0354 UTC
Wind: from the E (080 degrees) at 8 MPH (7 KT):0
Visibility: 10 mile(s):0
Sky conditions: clear
Temperature: 62.1 F (16.7 C)
Dew Point: 42.1 F (5.6 C)
Relative Humidity: 47%
Pressure (altimeter): 30.04 in. Hg (1017 hPa)
ob: KOLS 150354Z AUTO 08007KT 10SM CLR 17/06 A3004 RMK AO2 SLP121 T01670056
cycle: 4

Station Type Date Time Source
KOLS TAF 2019/10/14 18:27 UTC NOAA

TAF KOLS 141725Z 1418/1518 VRB04KT P6SM SCT050
FM141900 23008KT P6SM SCT050
FM150200 10005KT P6SM BKN050

Example: see airport list